Latest Weather Observations for Greenbank (Defence)

IDQ60801

Issued at 10:51 pm EST Thursday 20 September 2018 (issued every 10 minutes, with the page automatically refreshed every 10 minutes)

About weather observations | Map of weather stations | Latest weather observations for QLD | Other Formats
Station Details ID: 140009 Name: GREENBANK (DEFENCE) Lat: -27.69 Lon: 152.99 Height: 41.46 m
Data from the previous 72 hours. | See also: Recent months for locations in Queensland
Date/Time
EST
Temp
°C
App
Temp
°C
Dew
Point
°C
Rel
Hum
%
Delta-T
°C
Wind Press
QNH
hPa
Press
MSL
hPa
Rain since
9am
mm
Dir  Spd
km/h
Gust
km/h
Spd
kts
Gust
kts
20/10:30pm 16.6 15.4 11.5 72 2.8 SSW 9 19 5 10 - - 0.0
20/10:00pm 13.0 13.4 12.5 97 0.3 SSE 2 7 1 4 - - 0.0
20/09:30pm 12.3 12.8 11.5 95 0.4 CALM 0 0 0 0 - - 0.0
20/09:00pm 12.8 13.3 11.7 93 0.6 CALM 0 0 0 0 - - 0.0
20/08:30pm 13.8 14.6 12.4 91 0.8 CALM 0 4 0 2 - - 0.0
20/08:00pm 14.7 15.5 12.6 87 1.2 CALM 0 0 0 0 - - 0.0
20/07:30pm 16.0 16.2 13.1 83 1.6 NE 4 6 2 3 - - 0.0
20/07:00pm 17.4 18.4 13.3 77 2.3 CALM 0 0 0 0 - - 0.0
20/06:30pm 19.0 19.9 14.1 73 2.8 NNE 2 6 1 3 - - 0.0
20/06:00pm 19.6 19.9 13.3 67 3.6 SSE 4 7 2 4 - - 0.0
20/05:30pm 20.8 20.6 13.5 63 4.2 ENE 7 15 4 8 - - 0.0
20/05:00pm 21.8 21.2 13.4 59 4.8 E 9 20 5 11 - - 0.0
20/04:30pm 22.5 21.9 13.6 57 5.2 ENE 9 19 5 10 - - 0.0
20/04:00pm 23.3 22.3 13.5 54 5.7 ENE 11 24 6 13 - - 0.0
20/03:30pm 24.6 24.1 13.8 51 6.3 ENE 9 20 5 11 - - 0.0
20/03:00pm 23.9 23.4 13.7 53 6.0 ENE 9 20 5 11 - - 0.0
20/02:30pm 23.8 22.5 13.6 52 6.0 E 13 28 7 15 - - 0.0
20/02:00pm 24.6 24.2 14.1 52 6.2 ENE 9 19 5 10 - - 0.0
20/01:30pm 25.7 24.3 13.5 46 7.2 ENE 13 30 7 16 - - 0.0
20/01:00pm 28.3 25.3 5.8 24 11.8 W 11 20 6 11 - - 0.0
20/12:30pm 27.3 26.0 9.2 32 10.0 WSW 6 13 3 7 - - 0.0
20/12:00pm 27.5 26.8 10.2 34 9.7 WNW 4 9 2 5 - - 0.0
20/11:30am 25.8 24.6 10.4 38 8.6 SSW 7 20 4 11 - - 0.0
20/11:00am 26.0 24.5 10.6 38 8.6 SW 9 17 5 9 - - 0.0
20/10:30am 25.0 24.7 12.6 46 7.2 E 6 11 3 6 - - 0.0
20/10:00am 24.9 24.8 13.8 50 6.5 SE 7 13 4 7 - - 0.0
20/09:30am 23.9 23.0 12.5 49 6.5 SW 9 17 5 9 - - 0.0
20/09:00am 23.4 22.3 12.1 49 6.4 WNW 9 19 5 10 - - 0.0
20/08:30am 22.2 21.7 12.5 54 5.5 NW 7 13 4 7 - - 0.0
20/08:00am 20.3 20.6 13.3 64 4.0 NNE 4 6 2 3 - - 0.0
20/07:30am 17.1 18.2 13.4 79 2.1 CALM 0 0 0 0 - - 0.0
20/07:00am 14.2 15.0 12.4 89 1.0 CALM 0 0 0 0 - - 0.0
20/06:30am 11.6 12.0 11.4 99 0.1 CALM 0 0 0 0 - - 0.0
20/06:00am 11.1 11.3 10.6 97 0.3 CALM 0 0 0 0 - - 0.0
20/05:30am 11.2 11.4 10.6 96 0.3 CALM 0 0 0 0 - - 0.0
20/05:00am 11.6 11.9 11.0 96 0.3 CALM 0 0 0 0 - - 0.0
20/04:30am 12.0 12.5 11.5 97 0.3 CALM 0 0 0 0 - - 0.0
20/04:00am 12.2 12.7 11.6 96 0.3 CALM 0 0 0 0 - - 0.0
20/03:30am 12.5 13.0 11.7 95 0.4 CALM 0 0 0 0 - - 0.0
20/03:00am 13.1 13.8 12.3 95 0.4 CALM 0 0 0 0 - - 0.0
20/02:30am 13.4 13.6 12.9 97 0.3 SE 4 9 2 5 - - 0.0
20/02:00am 12.9 13.6 12.3 96 0.3 CALM 0 0 0 0 - - 0.0
20/01:30am 13.1 13.8 12.2 94 0.5 CALM 0 0 0 0 - - 0.0
20/01:00am 13.9 14.8 13.0 94 0.5 CALM 0 0 0 0 - - 0.0
20/12:30am 14.3 15.3 13.3 94 0.6 CALM 0 0 0 0 - - 0.0
20/12:00am 14.5 15.5 13.2 92 0.7 CALM 0 0 0 0 - - 0.0
 
Date/Time
EST
Temp
°C
App
Temp
°C
Dew
Point
°C
Rel
Hum
%
Delta-T
°C
Wind Press
QNH
hPa
Press
MSL
hPa
Rain since
9am
mm
Dir  Spd
km/h
Gust
km/h
Spd
kts
Gust
kts
19/11:30pm 15.5 16.7 13.7 89 1.0 CALM 0 0 0 0 - - 0.0
19/11:00pm 16.3 17.5 13.8 85 1.4 CALM 0 0 0 0 - - 0.0
19/10:30pm 17.4 18.3 13.9 80 2.0 E 2 4 1 2 - - 0.0
19/10:00pm 18.8 18.7 14.9 78 2.3 WSW 9 15 5 8 - - 0.0
19/09:30pm 19.6 19.5 15.0 75 2.7 NNE 9 13 5 7 - - 0.0
19/09:00pm 19.7 19.7 15.1 75 2.7 NNE 9 17 5 9 - - 0.0
19/08:30pm 19.8 19.3 15.0 74 2.8 NNE 11 24 6 13 - - 0.0
19/08:00pm 19.8 19.7 15.0 74 2.8 NE 9 19 5 10 - - 0.0
19/07:30pm 20.1 19.6 14.9 72 3.1 NNE 11 20 6 11 - - 0.0
19/07:00pm 20.3 19.7 14.7 70 3.3 NNE 11 17 6 9 - - 0.0
19/06:30pm 20.5 19.6 13.7 65 3.9 NNE 11 19 6 10 - - 0.0
19/06:00pm 20.9 20.2 13.1 61 4.5 NNE 9 19 5 10 - - 0.0
19/05:30pm 21.8 20.9 13.7 60 4.7 NNE 11 17 6 9 - - 0.0
19/05:00pm 23.0 21.6 13.5 55 5.5 NNE 13 20 7 11 - - 0.0
19/04:30pm 23.6 22.2 13.5 53 5.9 NNE 13 26 7 14 - - 0.0
19/04:00pm 24.0 22.2 13.2 50 6.3 NE 15 28 8 15 - - 0.0
19/03:30pm 24.4 22.0 12.7 48 6.7 NE 17 24 9 13 - - 0.0
19/03:00pm 25.4 23.3 12.3 44 7.5 NNE 15 24 8 13 - - 0.0
19/02:30pm 25.4 22.5 12.3 44 7.5 NNE 19 28 10 15 - - 0.0
19/02:00pm 26.1 23.7 12.5 42 7.9 NNE 17 30 9 16 - - 0.0
19/01:30pm 25.6 23.4 12.1 43 7.7 NNE 15 24 8 13 - - 0.0
19/01:00pm 26.1 23.3 11.5 40 8.3 N 17 26 9 14 - - 0.0
19/12:30pm 26.0 24.1 11.7 41 8.2 N 13 26 7 14 - - 0.0
19/12:00pm 25.5 23.7 10.9 40 8.2 NNE 11 26 6 14 - - 0.0
19/11:30am 24.4 23.1 11.4 44 7.3 NNW 9 15 5 8 - - 0.0
19/11:00am 24.2 22.6 11.5 45 7.2 NE 11 22 6 12 - - 0.0
19/10:30am 22.9 22.1 11.0 47 6.6 NNE 6 17 3 9 - - 0.0
19/10:00am 22.5 20.9 11.6 50 6.1 NNE 11 19 6 10 - - 0.0
19/09:30am 21.9 21.1 11.6 52 5.8 N 7 26 4 14 - - 0.0
19/09:00am 21.0 20.5 12.2 57 4.9 NNE 6 9 3 5 - - 0.0
19/08:30am 19.2 18.6 11.7 62 4.1 WSW 6 7 3 4 - - 0.0
19/08:00am 17.3 17.0 11.6 69 3.1 WSW 4 7 2 4 - - 0.0
19/07:30am 14.9 15.0 10.1 73 2.5 CALM 0 0 0 0 - - 0.0
19/07:00am 12.7 12.7 9.7 82 1.5 CALM 0 0 0 0 - - 0.0
19/06:30am 10.3 10.1 9.1 92 0.6 CALM 0 0 0 0 - - 0.0
19/06:00am 9.4 9.1 8.6 95 0.4 CALM 0 0 0 0 - - 0.0
19/05:30am 8.6 8.1 8.0 96 0.3 CALM 0 0 0 0 - - 0.0
19/05:00am 8.2 7.6 7.3 94 0.4 CALM 0 0 0 0 - - 0.0
19/04:30am 8.8 8.3 7.9 94 0.4 CALM 0 0 0 0 - - 0.0
19/04:00am 9.0 8.6 8.4 96 0.3 CALM 0 0 0 0 - - 0.0
19/03:30am 8.4 7.9 8.0 97 0.2 CALM 0 0 0 0 - - 0.0
19/03:00am 7.9 7.3 7.3 96 0.3 CALM 0 0 0 0 - - 0.0
19/02:30am 7.9 7.3 7.3 96 0.3 CALM 0 0 0 0 - - 0.0
19/02:00am 8.1 7.5 7.3 95 0.4 CALM 0 0 0 0 - - 0.0
19/01:30am 8.3 7.7 7.5 95 0.4 CALM 0 0 0 0 - - 0.0
19/01:00am 8.7 8.2 7.8 94 0.4 CALM 0 0 0 0 - - 0.0
19/12:30am 8.9 8.4 7.8 93 0.5 CALM 0 0 0 0 - - 0.0
19/12:00am 9.2 8.7 8.0 92 0.6 CALM 0 0 0 0 - - 0.0
 
Date/Time
EST
Temp
°C
App
Temp
°C
Dew
Point
°C
Rel
Hum
%
Delta-T
°C
Wind Press
QNH
hPa
Press
MSL
hPa
Rain since
9am
mm
Dir  Spd
km/h
Gust
km/h
Spd
kts
Gust
kts
18/11:30pm 9.4 8.9 8.0 91 0.7 CALM 0 0 0 0 - - 0.0
18/11:00pm 9.8 9.4 8.2 90 0.8 CALM 0 0 0 0 - - 0.0
18/10:30pm 10.2 9.8 8.3 88 0.9 CALM 0 0 0 0 - - 0.0
18/10:00pm 10.5 10.1 8.3 86 1.1 CALM 0 0 0 0 - - 0.0
18/09:30pm 11.1 10.8 8.5 84 1.3 CALM 0 0 0 0 - - 0.0
18/09:00pm 11.7 11.5 8.9 83 1.4 CALM 0 0 0 0 - - 0.0
18/08:30pm 12.3 12.1 9.1 81 1.6 CALM 0 0 0 0 - - 0.0
18/08:00pm 13.1 12.9 9.2 77 2.0 CALM 0 0 0 0 - - 0.0
18/07:30pm 14.3 13.7 9.1 71 2.7 ENE 2 6 1 3 - - 0.0
18/07:00pm 16.1 15.6 9.3 64 3.5 NE 2 4 1 2 - - 0.0
18/06:30pm 17.9 17.1 9.5 58 4.4 ENE 4 7 2 4 - - 0.0
18/06:00pm 18.9 17.2 9.7 55 4.9 NE 9 17 5 9 - - 0.0
18/05:30pm 19.7 17.6 9.6 52 5.4 NE 11 22 6 12 - - 0.0
18/05:00pm 20.8 18.7 9.7 49 6.0 NE 11 20 6 11 - - 0.0
18/04:30pm 22.0 19.4 9.5 45 6.7 NE 13 20 7 11 - - 0.0
18/04:00pm 22.4 19.9 9.6 44 6.9 NNE 13 24 7 13 - - 0.0
18/03:30pm 23.1 21.5 10.2 44 7.1 ENE 9 17 5 9 - - 0.0
18/03:00pm 22.9 21.3 10.3 45 6.9 ENE 9 19 5 10 - - 0.0
18/02:30pm 22.7 21.2 10.5 46 6.7 ENE 9 17 5 9 - - 0.0
18/02:00pm 22.1 20.4 9.9 46 6.6 ENE 9 15 5 8 - - 0.0
18/01:30pm 22.6 21.4 10.4 46 6.7 ENE 7 15 4 8 - - 0.0
18/01:00pm 23.2 22.0 10.3 44 7.1 NE 7 15 4 8 - - 0.0
18/12:30pm 23.0 21.5 10.4 45 6.9 N 9 19 5 10 - - 0.0
18/12:00pm 22.5 21.3 10.3 46 6.7 N 7 19 4 10 - - 0.0
18/11:30am 22.7 21.4 9.8 44 7.0 N 7 20 4 11 - - 0.0
18/11:00am 22.1 20.1 10.3 47 6.5 NNE 11 19 6 10 - - 0.0
18/10:30am 22.6 20.8 10.7 47 6.6 NNW 11 17 6 9 - - 0.0
18/10:00am 20.5 19.1 10.9 54 5.3 N 9 19 5 10 - - 0.0
18/09:30am 19.7 18.8 10.7 56 4.9 N 6 9 3 5 - - 0.0
18/09:00am 19.1 18.5 10.4 57 4.7 S 4 7 2 4 - - 0.0
18/08:30am 17.9 17.1 9.5 58 4.4 SSE 4 7 2 4 - - 0.0
18/08:00am 16.4 16.3 9.3 63 3.7 CALM 0 6 0 3 - - 0.0
18/07:30am 13.8 13.4 8.4 70 2.7 CALM 0 0 0 0 - - 0.0
18/07:00am 10.5 10.0 7.9 84 1.3 CALM 0 0 0 0 - - 0.0
18/06:30am 7.2 6.4 6.6 96 0.3 CALM 0 0 0 0 - - 0.0
18/06:00am 6.9 6.0 6.2 95 0.3 CALM 0 0 0 0 - - 0.0
18/05:30am 6.8 5.9 6.1 95 0.3 CALM 0 0 0 0 - - 0.0
18/05:00am 6.5 5.5 5.6 94 0.4 CALM 0 0 0 0 - - 0.0
18/04:30am 6.8 5.9 5.9 94 0.4 CALM 0 0 0 0 - - 0.0
18/04:00am 7.1 6.2 6.2 94 0.4 CALM 0 0 0 0 - - 0.0
18/03:30am 7.1 6.2 6.2 94 0.4 CALM 0 0 0 0 - - 0.0
18/03:00am 7.3 6.4 6.2 93 0.5 CALM 0 0 0 0 - - 0.0
18/02:30am 7.5 6.7 6.4 93 0.5 CALM 0 0 0 0 - - 0.0
18/02:00am 8.0 7.3 6.8 92 0.6 CALM 0 0 0 0 - - 0.0
18/01:30am 8.3 7.6 6.9 91 0.7 CALM 0 0 0 0 - - 0.0
18/01:00am 8.7 8.1 7.2 90 0.7 CALM 0 0 0 0 - - 0.0
18/12:30am 9.1 8.4 7.1 87 0.9 CALM 0 0 0 0 - - 0.0
18/12:00am 9.7 9.1 7.3 85 1.1 CALM 0 0 0 0 - - 0.0
 
Date/Time
EST
Temp
°C
App
Temp
°C
Dew
Point
°C
Rel
Hum
%
Delta-T
°C
Wind Press
QNH
hPa
Press
MSL
hPa
Rain since
9am
mm
Dir  Spd
km/h
Gust
km/h
Spd
kts
Gust
kts
17/11:30pm 10.3 9.7 7.5 83 1.3 CALM 0 0 0 0 - - 0.0
17/11:00pm 11.3 10.9 8.2 81 1.5 CALM 0 0 0 0 - - 0.0

Other Formats:

Comma delimited format used in spreadsheet applications
http://www.bom.gov.au/fwo/IDQ60801/IDQ60801.94419.axf

JavaScript Object Notation format (JSON) in row-major order
http://www.bom.gov.au/fwo/IDQ60801/IDQ60801.94419.json